Terminal Aerodrome Forecast
Issued by NWS Shreveport, LA

Home | Current Version | Previous Version | Text Only | Print | Product List | Glossary On
Versions: 1 2 3 4 5 6 7 8 9 10 11 12 13 14 15 16 17 18 19 20 21
535
FTUS44 KSHV 222347
TAFTXK
TAF
KTXK 222347Z 2300/2324 12004KT P6SM OVC045
     FM230600 00000KT 4SM BR OVC250
     FM230900 30002KT 4SM BR OVC001
     FM231500 31005KT P6SM BKN100
     FM231800 VRB05KT P6SM VCTS BKN050CB=

USA.gov is the U.S. government's official web portal to all federal, state and local government web resources and services.